MMMZ/MZT METAR and TAF weather

Enter ICAO airport designator
Station Type Date Time Source
MMMZ METAR 2019/12/05 22:41 UTC NOAA

MMMZ 052241Z 28006KT 14SM FEW140 FEW240 27/20 A2990 RMK 8/032


Station Type Date Time Source
MMMZ Decoded METAR 2019/12/05 22:41 UTC NOAA

Mazatlan / G. Buelna, Mexico (MMMZ) 23-10N 106-16W
Dec 05, 2019 - 05:41 PM EST / 2019.12.05 2241 UTC
Wind: from the W (280 degrees) at 7 MPH (6 KT):0
Visibility: 14 mile(s):0
Sky conditions: mostly clear
Temperature: 80 F (27 C)
Dew Point: 68 F (20 C)
Relative Humidity: 65%
Pressure (altimeter): 29.9 in. Hg (1012 hPa)
ob: MMMZ 052241Z 28006KT 14SM FEW140 FEW240 27/20 A2990 RMK 8/032
cycle: 22

Station Type Date Time Source
MMMZ TAF 2019/12/05 18:42 UTC NOAA

TAF MMMZ 051636Z 0518/0624 24010KT P6SM SCT020 TX29/0520Z TN18/0612Z
FM060400 00000KT 3SM BR OVC010
FM060900 00000KT 1/2SM FG OVC005
FM061400 00000KT 2SM BR BKN010
FM061700 08010KT 4SM HZ SCT020

Example: see airport list